X  Sluiten METAR luchtvaart weer gegevens      EHKD De Kooy Airport
Temperatuur
52°F Temperatuur
50°F Dauwpunt
94% Vochtigheid



Wind
6 MPH
10 KM/U
3 M/S
5 KTS



190°
Z
Huidig weer

Helder Helder
Luchtdruk 1005.76 (hPa) - 29.7 (inHg)
Zicht 6 (mijl) - 9.7 (km)
Vliegveld
Vliegveld code EHKD

Locatie : De Kooy Airport
Afstand: 34 (mi)

Metar:
EHKD 170125Z AUTO 19005KT 9999 NCD 11/10 Q1006 BLU

Tijd: 17-06-2024 03:25 CEST